Main page
METAR-TAF:

METAR-TAF

Airports :

Conakry International Airport

Conakry, Guinea

latitude: 09-34N, longitude: 013-37W, elevation: 26 m

Current weather observation

The report was made 45 minutes ago, at 19:00 UTC
Wind 6 kt from the West
Temperature 28°C
Humidity 66%
Pressure 1010 hPa
Visibility 10 km or more
no clouds below 1500 m and no cumulonimbus

METAR: GUCY 221900Z 27006KT CAVOK 28/21 Q1010 NOSIG

Time: 19:45 (19:45 UTC)

Forecast

The report was made 2 hours and 45 minutes ago, at 17:00 UTC
Forecast valid from 22 at 18 UTC to 23 at 24 UTC
Wind 8 kt from the West
Visibility 10 km or more
Few clouds at a height of 1500 ft
Scattered clouds at a height of 11000 ft
Probability 30% :
Temporary
from 22 at 24 UTC to 23 at 04 UTC
Visibility 10 km or more
no clouds below 1500 m and no cumulonimbus

TAF: GUCY 221700Z 2218/2324 27008KT 9999 FEW015 SCT110 PROB30 TEMPO 2224/2304 CAVOK

Weather observations and forecasts of more than 4000 airports (METAR and TAF reports).

The available stations are represented by yellow and red dots on the map.

Hover mouse over dot to see the name of the station.

Then click to see weather observations and forecasts.

To change the map : click on the green buttons with a black cross to zoom in, on the green button with a dash to zoom out, or on the green arrows for adjacent maps.


METAR-TAF: